createdAt,value
2022-08-05T00:00:17.076Z,19.42
2022-08-05T00:02:51.337Z,19.38
2022-08-05T00:06:01.458Z,19.42
2022-08-05T00:08:19.772Z,19.40
2022-08-05T00:10:52.627Z,19.35
2022-08-05T00:13:19.854Z,19.38
2022-08-05T00:15:57.551Z,19.33
2022-08-05T00:18:26.747Z,19.30
2022-08-05T00:20:56.046Z,19.28
2022-08-05T00:23:44.482Z,19.28
2022-08-05T00:26:10.125Z,19.26
2022-08-05T00:28:37.218Z,19.18
2022-08-05T00:31:07.785Z,19.11
2022-08-05T00:34:56.865Z,19.09
2022-08-05T00:37:11.599Z,18.99
2022-08-05T00:39:13.510Z,18.94
2022-08-05T00:41:51.491Z,18.94
2022-08-05T00:44:18.818Z,18.94
2022-08-05T00:46:47.528Z,18.90
2022-08-05T00:49:21.340Z,18.92
2022-08-05T00:51:51.873Z,18.85
2022-08-05T00:54:18.908Z,18.84
2022-08-05T00:56:53.582Z,18.74
2022-08-05T00:59:20.201Z,18.80
2022-08-05T01:01:48.516Z,18.83
2022-08-05T01:04:15.935Z,18.76
2022-08-05T01:06:51.737Z,18.77
2022-08-05T01:09:20.233Z,18.79
2022-08-05T01:11:50.221Z,18.76
2022-08-05T01:14:28.238Z,18.83
2022-08-05T01:17:12.130Z,18.80
2022-08-05T01:20:00.894Z,18.76
2022-08-05T01:22:51.198Z,18.79
2022-08-05T01:25:59.254Z,18.79
2022-08-05T01:28:51.672Z,18.73
2022-08-05T01:31:34.434Z,18.74
2022-08-05T01:34:35.928Z,18.69
2022-08-05T01:37:06.017Z,18.74
2022-08-05T01:39:46.609Z,18.75
2022-08-05T01:42:16.647Z,18.74
2022-08-05T01:44:45.656Z,18.79
2022-08-05T01:47:21.657Z,18.76
2022-08-05T01:50:01.736Z,18.74
2022-08-05T01:52:30.551Z,18.70
2022-08-05T01:55:04.349Z,18.72
2022-08-05T01:58:11.440Z,18.68
2022-08-05T02:00:21.531Z,18.68
2022-08-05T02:03:05.249Z,18.68
2022-08-05T02:05:34.272Z,18.61
2022-08-05T02:08:01.829Z,18.58
2022-08-05T02:10:32.400Z,18.54
2022-08-05T02:13:15.711Z,18.48
2022-08-05T02:15:55.630Z,18.43
2022-08-05T02:18:41.810Z,18.36
2022-08-05T02:21:38.015Z,18.34
2022-08-05T02:24:14.550Z,18.23
2022-08-05T02:26:56.591Z,18.12
2022-08-05T02:29:58.124Z,18.08
2022-08-05T02:32:23.679Z,18.05
2022-08-05T02:34:54.921Z,17.97
2022-08-05T02:37:22.346Z,17.94
2022-08-05T02:39:51.738Z,17.92
2022-08-05T02:42:27.354Z,17.91
2022-08-05T02:44:57.694Z,17.86
2022-08-05T02:48:07.515Z,17.87
2022-08-05T02:50:31.013Z,17.75
2022-08-05T02:52:58.743Z,17.73
2022-08-05T02:55:53.912Z,17.73
2022-08-05T02:58:15.044Z,17.70
2022-08-05T03:00:43.999Z,17.68
2022-08-05T03:03:19.478Z,17.65
2022-08-05T03:06:53.879Z,17.65
2022-08-05T03:08:38.800Z,17.60
2022-08-05T03:11:56.453Z,17.57
2022-08-05T03:16:55.873Z,17.47
2022-08-05T03:19:34.082Z,17.44
2022-08-05T03:22:04.990Z,17.41
2022-08-05T03:24:49.577Z,17.34
2022-08-05T03:27:18.531Z,17.30
2022-08-05T03:30:07.472Z,17.27
2022-08-05T03:32:35.783Z,17.23
2022-08-05T03:35:04.431Z,17.17
2022-08-05T03:37:41.642Z,17.13
2022-08-05T03:40:13.246Z,17.06
2022-08-05T03:42:52.514Z,17.02
2022-08-05T03:45:21.626Z,16.98
2022-08-05T03:47:49.589Z,16.94
2022-08-05T03:50:16.139Z,16.90
2022-08-05T03:55:53.742Z,16.86
2022-08-05T03:56:04.725Z,16.80
2022-08-05T03:58:36.273Z,16.75
2022-08-05T04:01:05.088Z,16.68
2022-08-05T04:03:36.058Z,16.69
2022-08-05T04:06:06.133Z,16.65
2022-08-05T04:08:36.382Z,16.59
2022-08-05T04:11:04.636Z,16.57
2022-08-05T04:13:49.661Z,16.56
2022-08-05T04:16:25.031Z,16.56
2022-08-05T04:18:54.049Z,16.57
2022-08-05T04:22:09.220Z,16.58
2022-08-05T04:24:22.893Z,16.61
2022-08-05T04:26:50.069Z,16.57
2022-08-05T04:29:16.588Z,16.58
2022-08-05T04:31:43.156Z,16.57
2022-08-05T04:34:31.151Z,16.55
2022-08-05T04:36:56.451Z,16.50
2022-08-05T04:39:23.120Z,16.54
2022-08-05T04:41:51.151Z,16.55
2022-08-05T04:44:21.450Z,16.58
2022-08-05T04:46:57.055Z,16.52
2022-08-05T04:49:38.925Z,16.50
2022-08-05T04:52:11.921Z,16.58
2022-08-05T04:54:38.486Z,16.62
2022-08-05T04:57:05.208Z,16.59
2022-08-05T04:59:38.290Z,16.60
2022-08-05T05:02:37.738Z,16.60
2022-08-05T05:04:53.085Z,16.68
2022-08-05T05:07:29.775Z,16.76
2022-08-05T05:09:59.196Z,16.84
2022-08-05T05:12:29.206Z,16.96
2022-08-05T05:14:55.885Z,17.10
2022-08-05T05:17:24.510Z,17.10
2022-08-05T05:20:09.739Z,17.21
2022-08-05T05:22:44.887Z,17.25
2022-08-05T05:25:16.468Z,17.39
2022-08-05T05:27:53.503Z,17.43
2022-08-05T05:30:29.123Z,17.43
2022-08-05T05:35:42.420Z,17.56
2022-08-05T05:38:12.926Z,17.59
2022-08-05T05:40:48.074Z,17.75
2022-08-05T05:43:27.940Z,17.83
2022-08-05T05:46:05.153Z,17.95
2022-08-05T05:48:32.467Z,17.95
2022-08-05T05:51:05.174Z,17.97
2022-08-05T05:53:54.062Z,17.87
2022-08-05T05:56:26.093Z,17.96
2022-08-05T05:59:02.848Z,18.06
2022-08-05T06:01:38.045Z,18.11
2022-08-05T06:04:14.444Z,18.26
2022-08-05T06:06:42.913Z,18.37
2022-08-05T06:09:17.430Z,18.38
2022-08-05T06:11:59.507Z,18.55
2022-08-05T06:14:29.220Z,18.66
2022-08-05T06:16:56.825Z,18.71
2022-08-05T06:19:34.273Z,18.92
2022-08-05T06:22:06.475Z,19.01
2022-08-05T06:24:33.982Z,19.06
2022-08-05T06:27:01.885Z,19.05
2022-08-05T06:29:52.085Z,19.18
2022-08-05T06:32:28.798Z,19.20
2022-08-05T06:34:58.327Z,19.18
2022-08-05T06:37:57.878Z,19.37
2022-08-05T06:40:18.370Z,19.44
2022-08-05T06:42:52.252Z,19.34
2022-08-05T06:45:21.248Z,19.25
2022-08-05T06:48:36.080Z,19.38
2022-08-05T06:51:00.460Z,19.36
2022-08-05T06:53:28.357Z,19.50
2022-08-05T06:55:59.689Z,19.69
2022-08-05T06:58:34.995Z,19.81
2022-08-05T07:01:05.462Z,19.96
2022-08-05T07:03:33.330Z,20.15
2022-08-05T07:06:05.972Z,20.28
2022-08-05T07:08:47.946Z,20.58
2022-08-05T07:11:22.370Z,20.63
2022-08-05T07:14:29.739Z,20.84
2022-08-05T07:17:58.405Z,21.00
2022-08-05T07:22:47.942Z,21.29
2022-08-05T07:25:54.272Z,21.39
2022-08-05T07:28:09.672Z,21.40
2022-08-05T07:30:39.874Z,21.55
2022-08-05T07:33:16.837Z,21.74
2022-08-05T07:36:03.643Z,21.65
2022-08-05T07:38:35.698Z,21.67
2022-08-05T07:42:08.288Z,21.83
2022-08-05T07:43:59.688Z,21.75
2022-08-05T07:46:27.406Z,21.86
2022-08-05T07:49:01.615Z,21.83
2022-08-05T07:51:40.835Z,21.98
2022-08-05T07:54:22.044Z,21.90
2022-08-05T07:57:01.974Z,21.79
2022-08-05T07:59:41.143Z,21.82
2022-08-05T08:02:16.554Z,21.78
2022-08-05T08:04:48.246Z,21.96
2022-08-05T08:07:16.011Z,21.87
2022-08-05T08:09:44.508Z,21.59
2022-08-05T08:12:35.639Z,21.60
2022-08-05T08:15:02.678Z,21.59
2022-08-05T08:17:31.003Z,21.80
2022-08-05T08:25:34.589Z,22.05
2022-08-05T08:28:06.319Z,21.78
2022-08-05T08:30:49.629Z,21.51
2022-08-05T08:33:36.150Z,21.14
2022-08-05T08:36:29.496Z,20.86
2022-08-05T08:41:52.215Z,20.46
2022-08-05T08:45:23.923Z,20.17
2022-08-05T08:47:47.725Z,19.81
2022-08-05T08:50:31.695Z,19.74
2022-08-05T08:52:54.043Z,19.66
2022-08-05T08:56:03.040Z,19.49
2022-08-05T08:58:18.043Z,19.58
2022-08-05T09:03:44.874Z,19.51
2022-08-05T09:06:15.758Z,19.46
2022-08-05T09:08:45.183Z,19.45
2022-08-05T09:14:54.728Z,19.64
2022-08-05T09:16:48.752Z,19.45
2022-08-05T09:19:15.659Z,19.47
2022-08-05T09:22:22.109Z,19.35
2022-08-05T09:24:37.412Z,19.50
2022-08-05T09:27:08.793Z,19.47
2022-08-05T09:29:47.724Z,19.51
2022-08-05T09:32:45.947Z,19.63
2022-08-05T09:35:10.652Z,19.75
2022-08-05T09:38:18.452Z,19.82
2022-08-05T09:40:44.480Z,19.78
2022-08-05T09:43:27.938Z,19.75
2022-08-05T09:49:07.264Z,19.92
2022-08-05T09:51:42.305Z,19.90
2022-08-05T09:54:09.460Z,19.78
2022-08-05T10:04:57.226Z,19.69
2022-08-05T10:10:15.346Z,19.60
2022-08-05T10:12:50.401Z,19.78
2022-08-05T10:15:34.275Z,19.94
2022-08-05T10:20:44.356Z,20.23
2022-08-05T10:23:34.485Z,20.24
2022-08-05T10:26:24.417Z,20.40
2022-08-05T10:28:59.445Z,20.41
2022-08-05T10:32:55.080Z,20.76
2022-08-05T10:34:12.787Z,20.76
2022-08-05T10:36:41.384Z,20.76
2022-08-05T10:39:59.333Z,20.70
2022-08-05T10:42:34.288Z,20.76
2022-08-05T10:45:01.592Z,20.94
2022-08-05T10:47:33.288Z,20.88
2022-08-05T10:50:20.669Z,21.01
2022-08-05T10:52:58.814Z,21.24
2022-08-05T10:55:26.011Z,21.55
2022-08-05T10:58:11.775Z,22.45
2022-08-05T11:06:15.070Z,23.25
2022-08-05T11:09:24.464Z,22.98
2022-08-05T11:11:59.289Z,22.94
2022-08-05T11:14:57.791Z,23.09
2022-08-05T11:20:32.498Z,23.34
2022-08-05T11:23:05.836Z,23.31
2022-08-05T11:26:04.711Z,23.20
2022-08-05T11:28:22.232Z,22.99
2022-08-05T11:31:13.026Z,23.11
2022-08-05T11:36:52.629Z,23.27
2022-08-05T11:39:47.979Z,23.93
2022-08-05T11:42:18.309Z,24.32
2022-08-05T11:44:53.904Z,24.72
2022-08-05T11:47:49.728Z,25.33
2022-08-05T11:50:17.872Z,25.04
2022-08-05T11:52:57.566Z,25.33
2022-08-05T11:55:32.100Z,26.20
2022-08-05T11:58:09.174Z,25.92
2022-08-05T12:00:38.282Z,26.19
2022-08-05T12:03:29.284Z,26.08
2022-08-05T12:06:06.528Z,26.20
2022-08-05T12:08:49.978Z,26.96
2022-08-05T12:11:22.662Z,27.38
2022-08-05T12:13:58.552Z,28.11
2022-08-05T12:16:28.952Z,28.06
2022-08-05T12:18:55.830Z,28.31
2022-08-05T12:24:14.265Z,29.16
2022-08-05T12:26:59.282Z,29.49
2022-08-05T12:29:38.848Z,29.13
2022-08-05T12:34:55.386Z,28.45
2022-08-05T12:37:23.109Z,27.45
2022-08-05T12:40:03.626Z,27.00
2022-08-05T12:42:37.563Z,27.56
2022-08-05T12:45:08.799Z,28.02
2022-08-05T12:48:01.470Z,28.07
2022-08-05T12:50:32.214Z,28.90
2022-08-05T12:52:59.971Z,27.77
2022-08-05T12:55:32.976Z,27.53
2022-08-05T12:58:38.786Z,27.40
2022-08-05T13:03:32.332Z,25.82
2022-08-05T13:06:01.223Z,24.73
2022-08-05T13:08:32.259Z,24.08
2022-08-05T13:11:00.553Z,24.56
2022-08-05T13:14:04.667Z,25.35
2022-08-05T13:16:17.359Z,26.41
2022-08-05T13:18:57.691Z,26.88
2022-08-05T13:21:28.555Z,25.90
2022-08-05T13:26:52.763Z,25.78
2022-08-05T13:29:37.866Z,25.26
2022-08-05T13:32:05.490Z,25.10
2022-08-05T13:34:32.794Z,24.59
2022-08-05T13:37:00.241Z,24.40
2022-08-05T13:40:14.151Z,23.92
2022-08-05T13:42:15.231Z,23.64
2022-08-05T13:44:46.062Z,23.60
2022-08-05T13:47:35.795Z,23.21
2022-08-05T13:50:04.657Z,23.32
2022-08-05T13:52:35.237Z,23.27
2022-08-05T13:55:02.485Z,23.68
2022-08-05T13:57:51.011Z,23.69
2022-08-05T14:00:28.000Z,24.30
2022-08-05T14:03:11.607Z,24.17
2022-08-05T14:06:24.496Z,24.55
2022-08-05T14:08:27.667Z,24.20
2022-08-05T14:10:59.637Z,23.72
2022-08-05T14:13:30.049Z,23.11
2022-08-05T14:16:06.853Z,23.75
2022-08-05T14:18:37.924Z,23.88
2022-08-05T14:22:09.121Z,23.93
2022-08-05T14:23:51.181Z,24.26
2022-08-05T14:26:36.741Z,23.88
2022-08-05T14:29:04.800Z,23.63
2022-08-05T14:32:03.026Z,23.70
2022-08-05T14:34:18.596Z,23.96
2022-08-05T14:36:50.276Z,25.17
2022-08-05T14:39:23.319Z,25.69
2022-08-05T14:42:16.708Z,25.50
2022-08-05T14:44:36.832Z,24.56
2022-08-05T14:47:03.704Z,25.67
2022-08-05T14:49:56.330Z,26.17
2022-08-05T14:52:36.280Z,24.75
2022-08-05T14:55:03.493Z,25.06
2022-08-05T14:57:34.123Z,25.38
2022-08-05T15:00:16.673Z,25.16
2022-08-05T15:05:29.950Z,25.16
2022-08-05T15:08:17.924Z,24.57
2022-08-05T15:11:00.765Z,24.47
2022-08-05T15:13:28.639Z,22.79
2022-08-05T15:16:13.185Z,22.63
2022-08-05T15:18:40.009Z,22.92
2022-08-05T15:21:08.634Z,23.10
2022-08-05T15:23:35.265Z,23.24
2022-08-05T15:26:04.770Z,22.84
2022-08-05T15:31:20.153Z,24.39
2022-08-05T15:34:04.813Z,25.62
2022-08-05T15:36:33.334Z,26.07
2022-08-05T15:41:02.714Z,24.53
2022-08-05T15:42:00.601Z,23.18
2022-08-05T15:44:35.811Z,22.78
2022-08-05T15:47:04.302Z,23.25
2022-08-05T15:49:52.064Z,24.60
2022-08-05T15:52:52.248Z,25.77
2022-08-05T15:55:16.141Z,26.57
2022-08-05T15:57:43.262Z,26.63
2022-08-05T16:00:12.340Z,26.08
2022-08-05T16:02:43.420Z,26.09
2022-08-05T16:05:17.924Z,27.04
2022-08-05T16:07:49.268Z,27.67
2022-08-05T16:10:16.374Z,27.59
2022-08-05T16:12:51.703Z,27.87
2022-08-05T16:15:20.441Z,26.60
2022-08-05T16:17:58.041Z,26.74
2022-08-05T16:20:33.369Z,25.98
2022-08-05T16:23:01.094Z,26.02
2022-08-05T16:25:34.085Z,25.99
2022-08-05T16:28:09.666Z,26.22
2022-08-05T16:30:37.746Z,26.56
2022-08-05T16:33:04.725Z,26.06
2022-08-05T16:35:33.632Z,25.18
2022-08-05T16:38:18.486Z,25.99
2022-08-05T16:40:59.732Z,25.99
2022-08-05T16:43:30.469Z,25.03
2022-08-05T16:46:07.856Z,24.27
2022-08-05T16:48:43.742Z,24.21
2022-08-05T16:51:10.924Z,24.91
2022-08-05T16:54:03.383Z,25.56
2022-08-05T16:56:26.800Z,25.96
2022-08-05T16:59:08.701Z,25.64
2022-08-05T17:01:53.068Z,25.71
2022-08-05T17:04:21.082Z,24.40
2022-08-05T17:06:53.150Z,24.26
2022-08-05T17:09:20.527Z,24.99
2022-08-05T17:17:15.332Z,24.64
2022-08-05T17:19:43.898Z,24.98
2022-08-05T17:22:25.412Z,24.79
2022-08-05T17:27:33.306Z,24.85
2022-08-05T17:30:02.411Z,24.63
2022-08-05T17:32:29.709Z,24.38
2022-08-05T17:34:58.274Z,24.90
2022-08-05T17:37:40.003Z,24.67
2022-08-05T17:40:12.854Z,24.21
2022-08-05T17:42:42.842Z,24.61
2022-08-05T17:47:58.441Z,23.75
2022-08-05T17:50:29.972Z,24.22
2022-08-05T17:55:40.301Z,24.12
2022-08-05T17:58:13.185Z,23.33
2022-08-05T18:00:45.066Z,22.57
2022-08-05T18:03:56.052Z,21.45
2022-08-05T18:06:12.404Z,20.72
2022-08-05T18:08:45.036Z,20.10
2022-08-05T18:14:04.517Z,19.56
2022-08-05T18:16:34.596Z,19.40
2022-08-05T18:19:02.176Z,19.15
2022-08-05T18:22:07.420Z,19.09
2022-08-05T18:24:15.467Z,18.97
2022-08-05T18:26:42.152Z,18.59
2022-08-05T18:29:10.562Z,18.59
2022-08-05T18:31:37.262Z,18.40
2022-08-05T18:34:12.258Z,18.40
2022-08-05T18:36:39.518Z,18.43
2022-08-05T18:44:33.118Z,18.15
2022-08-05T18:47:03.281Z,18.03
2022-08-05T18:52:33.698Z,17.81
2022-08-05T18:55:05.728Z,17.78
2022-08-05T18:57:43.179Z,17.73
2022-08-05T19:03:03.993Z,17.69
2022-08-05T19:06:13.611Z,17.60
2022-08-05T19:08:18.782Z,17.61
2022-08-05T19:10:45.610Z,17.51
2022-08-05T19:13:15.926Z,17.45
2022-08-05T19:15:59.323Z,17.43
2022-08-05T19:18:27.566Z,17.44
2022-08-05T19:20:54.410Z,17.24
2022-08-05T19:24:03.905Z,17.02
2022-08-05T19:26:09.618Z,16.80
2022-08-05T19:28:42.079Z,16.74
2022-08-05T19:33:56.410Z,16.56
2022-08-05T19:36:29.445Z,16.60
2022-08-05T19:39:00.645Z,16.56
2022-08-05T19:42:06.845Z,16.52
2022-08-05T19:47:10.393Z,16.33
2022-08-05T19:49:49.399Z,16.34
2022-08-05T19:52:31.465Z,16.21
2022-08-05T19:55:00.579Z,16.17
2022-08-05T19:57:49.057Z,16.09
2022-08-05T20:00:20.769Z,16.04
2022-08-05T20:02:47.473Z,16.01
2022-08-05T20:05:24.462Z,16.00
2022-08-05T20:07:55.037Z,15.98
2022-08-05T20:10:24.966Z,15.99
2022-08-05T20:12:52.068Z,15.97
2022-08-05T20:15:23.001Z,15.88
2022-08-05T20:18:10.042Z,15.76
2022-08-05T20:20:55.044Z,15.63
2022-08-05T20:23:23.147Z,15.64
2022-08-05T20:28:30.245Z,15.54
2022-08-05T20:31:04.473Z,15.44
2022-08-05T20:33:33.156Z,15.33
2022-08-05T20:36:01.917Z,15.29
2022-08-05T20:38:31.387Z,15.24
2022-08-05T20:41:04.672Z,15.18
2022-08-05T20:43:58.667Z,15.15
2022-08-05T20:46:25.189Z,15.10
2022-08-05T20:51:32.667Z,15.01
2022-08-05T20:54:01.057Z,14.98
2022-08-05T20:59:14.249Z,14.86
2022-08-05T21:01:46.570Z,14.88
2022-08-05T21:04:21.856Z,14.87
2022-08-05T21:09:35.194Z,14.75
2022-08-05T21:12:09.281Z,14.71
2022-08-05T21:14:46.103Z,14.68
2022-08-05T21:17:13.393Z,14.65
2022-08-05T21:19:50.389Z,14.63
2022-08-05T21:22:17.910Z,14.59
2022-08-05T21:27:27.178Z,14.57
2022-08-05T21:29:57.450Z,14.59
2022-08-05T21:32:26.702Z,14.59
2022-08-05T21:34:56.040Z,14.59
2022-08-05T21:37:35.226Z,14.57
2022-08-05T21:40:13.641Z,14.54
2022-08-05T21:42:45.208Z,14.54
2022-08-05T21:47:58.117Z,14.44
2022-08-05T21:50:26.040Z,14.42
2022-08-05T21:55:42.965Z,14.42
2022-08-05T21:58:24.834Z,14.44
2022-08-05T22:01:05.286Z,14.41
2022-08-05T22:03:48.905Z,14.37
2022-08-05T22:06:22.906Z,14.27
2022-08-05T22:08:51.821Z,14.23
2022-08-05T22:11:19.346Z,14.19
2022-08-05T22:14:34.516Z,14.15
2022-08-05T22:16:51.869Z,14.08
2022-08-05T22:20:03.255Z,14.08
2022-08-05T22:22:06.904Z,14.05
2022-08-05T22:28:09.743Z,13.96
2022-08-05T22:30:34.929Z,13.93
2022-08-05T22:33:02.555Z,13.88
2022-08-05T22:35:31.253Z,13.86
2022-08-05T22:38:14.817Z,13.80
2022-08-05T22:46:08.769Z,13.63
2022-08-05T22:48:41.750Z,13.56
2022-08-05T22:51:16.077Z,13.51
2022-08-05T22:53:51.007Z,13.50
2022-08-05T22:56:29.853Z,13.46
2022-08-05T22:58:58.533Z,13.45
2022-08-05T23:01:50.691Z,13.45
2022-08-05T23:04:17.829Z,13.45
2022-08-05T23:06:44.375Z,13.42
2022-08-05T23:09:27.121Z,13.42
2022-08-05T23:11:58.551Z,13.35
2022-08-05T23:14:31.828Z,13.33
2022-08-05T23:17:18.632Z,13.33
2022-08-05T23:19:56.494Z,13.32
2022-08-05T23:22:27.406Z,13.29
2022-08-05T23:27:57.621Z,13.22
2022-08-05T23:30:27.041Z,13.17
2022-08-05T23:32:55.709Z,13.14
2022-08-05T23:35:24.277Z,13.11
2022-08-05T23:37:55.258Z,13.08
2022-08-05T23:40:27.146Z,13.05
2022-08-05T23:42:54.296Z,13.04
2022-08-05T23:48:03.127Z,13.01
2022-08-05T23:50:31.128Z,12.98
2022-08-05T23:55:38.367Z,12.97
2022-08-05T23:58:08.015Z,12.94
